Time;durP1;ratioP1;P1;durP2;ratioP2;P2;SDS_P1;SDS_P2;PMS_P1;PMS_P2;Temp;Humidity;BMP_temperature;BMP_pressure;BME280_temperature;BME280_humidity;BME280_pressure;Samples;Min_cycle;Max_cycle;Signal;HPM_P1;HPM_P2
2023/05/03 00:00:31;;;;;;;15.30;5.93;;;8.50;99.90;;;;;;4994194;28;20475;-75
2023/05/03 00:02:57;;;;;;;9.07;5.68;;;8.40;99.90;;;;;;4994678;28;20029;-75
2023/05/03 00:05:25;;;;;;;10.80;6.30;;;8.30;99.90;;;;;;4994067;28;20336;-75
2023/05/03 00:07:51;;;;;;;13.23;6.03;;;8.30;99.90;;;;;;4993630;28;20093;-75
2023/05/03 00:10:16;;;;;;;13.80;6.53;;;8.20;99.90;;;;;;4993862;28;20121;-75
2023/05/03 00:12:43;;;;;;;11.77;7.22;;;8.30;99.90;;;;;;4998796;28;20037;-75
2023/05/03 00:15:10;;;;;;;16.40;7.38;;;8.30;99.90;;;;;;4998719;28;20030;-74
2023/05/03 00:17:36;;;;;;;16.38;7.63;;;;;;;;;;5000456;28;20026;-74
2023/05/03 00:20:03;;;;;;;14.98;8.05;;;8.40;99.90;;;;;;5000408;28;20080;-75
2023/05/03 00:22:29;;;;;;;16.08;8.05;;;8.50;99.90;;;;;;4999060;28;20026;-74
2023/05/03 00:24:55;;;;;;;13.18;7.63;;;8.50;99.90;;;;;;4992958;28;20081;-75
2023/05/03 00:27:22;;;;;;;13.85;7.63;;;8.60;99.90;;;;;;4996615;28;20027;-74
2023/05/03 00:29:50;;;;;;;15.18;8.88;;;8.60;99.90;;;;;;4994938;28;20030;-75
2023/05/03 00:32:16;;;;;;;14.32;7.38;;;8.60;99.90;;;;;;4998379;28;20382;-74
2023/05/03 00:34:41;;;;;;;16.38;8.73;;;8.50;99.90;;;;;;4998583;28;20034;-74
2023/05/03 00:37:08;;;;;;;15.57;7.45;;;8.70;99.90;;;;;;4999179;28;20018;-75
2023/05/03 00:39:34;;;;;;;12.60;7.57;;;8.50;99.90;;;;;;5000192;28;20034;-75
2023/05/03 00:42:00;;;;;;;13.20;7.10;;;8.40;99.90;;;;;;5000585;28;20050;-75
2023/05/03 00:44:26;;;;;;;12.20;6.93;;;8.40;99.90;;;;;;5000663;28;20088;-74
2023/05/03 00:46:53;;;;;;;13.60;8.00;;;8.40;99.90;;;;;;5000819;28;20478;-74
2023/05/03 00:49:19;;;;;;;11.77;6.43;;;8.40;99.90;;;;;;5001120;28;20542;-75
2023/05/03 00:51:44;;;;;;;19.77;7.20;;;8.40;99.90;;;;;;5001299;28;20030;-74
2023/05/03 00:54:11;;;;;;;12.77;7.13;;;8.40;99.90;;;;;;4999581;28;20040;-74
2023/05/03 00:56:38;;;;;;;11.73;6.32;;;8.30;99.90;;;;;;5000995;28;20034;-75
2023/05/03 00:59:05;;;;;;;14.15;6.20;;;8.20;99.90;;;;;;5000124;28;20180;-75
2023/05/03 01:01:31;;;;;;;11.50;5.55;;;;;;;;;;5001239;28;20022;-75
2023/05/03 01:04:01;;;;;;;16.75;6.70;;;8.10;99.90;;;;;;5000239;28;20033;-75
2023/05/03 01:07:04;;;;;;;15.70;6.88;;;8.10;99.90;;;;;;5001127;28;20026;-74
2023/05/03 01:09:32;;;;;;;12.05;5.80;;;8.10;99.90;;;;;;4993063;28;20026;-74
2023/05/03 01:12:28;;;;;;;10.18;5.80;;;8.00;99.90;;;;;;4994589;28;20442;-74
2023/05/03 01:15:22;;;;;;;13.35;6.65;;;7.90;99.90;;;;;;4995437;28;20041;-74
2023/05/03 01:17:58;;;;;;;11.32;6.70;;;7.90;99.90;;;;;;4993776;28;20033;-74
2023/05/03 01:20:29;;;;;;;16.38;7.43;;;7.90;99.90;;;;;;4996588;28;20018;-74
2023/05/03 01:23:11;;;;;;;10.32;4.75;;;7.90;99.90;;;;;;4993219;28;20076;-75
2023/05/03 01:25:36;;;;;;;13.50;6.40;;;7.90;99.90;;;;;;4992252;28;20077;-74
2023/05/03 01:28:02;;;;;;;11.10;6.90;;;7.80;99.90;;;;;;4991054;28;20375;-75
2023/05/03 01:30:30;;;;;;;10.57;6.25;;;7.70;99.90;;;;;;4992591;28;20045;-74
2023/05/03 01:33:20;;;;;;;10.35;5.55;;;7.80;99.90;;;;;;4992476;28;20081;-74
2023/05/03 01:36:03;;;;;;;11.05;6.65;;;7.80;99.90;;;;;;4991920;28;20084;-74
2023/05/03 01:38:36;;;;;;;16.10;7.13;;;7.80;99.90;;;;;;4992558;28;20509;-74
2023/05/03 01:41:07;;;;;;;14.65;7.13;;;7.80;99.90;;;;;;4993290;28;20034;-74
2023/05/03 01:43:35;;;;;;;9.93;6.95;;;7.60;99.90;;;;;;4994109;28;20023;-74
2023/05/03 01:46:00;;;;;;;13.05;6.13;;;7.80;99.90;;;;;;4993943;28;20494;-74
2023/05/03 01:48:26;;;;;;;16.42;6.72;;;7.70;99.90;;;;;;4991839;28;20057;-75
2023/05/03 01:50:52;;;;;;;17.38;6.50;;;7.70;99.90;;;;;;4996254;28;20065;-75
2023/05/03 01:53:17;;;;;;;11.05;6.47;;;7.60;99.90;;;;;;4995424;28;20034;-74
2023/05/03 01:55:43;;;;;;;12.75;7.05;;;7.50;99.90;;;;;;4994230;28;20034;-75
2023/05/03 01:58:08;;;;;;;13.45;6.70;;;7.50;99.90;;;;;;4994525;28;20026;-74
2023/05/03 02:00:34;;;;;;;15.55;7.50;;;7.40;99.90;;;;;;4994101;28;20453;-75
2023/05/03 02:03:00;;;;;;;12.10;7.50;;;7.50;99.90;;;;;;4991235;28;20030;-75
2023/05/03 02:05:25;;;;;;;14.93;6.88;;;7.50;99.90;;;;;;4992244;28;20026;-75
2023/05/03 02:07:51;;;;;;;12.40;7.35;;;7.50;99.90;;;;;;4991749;28;20026;-74
2023/05/03 02:10:17;;;;;;;11.10;7.80;;;7.40;99.90;;;;;;4992934;28;20081;-74
2023/05/03 02:12:43;;;;;;;12.60;7.93;;;7.30;99.90;;;;;;4992298;28;20035;-75
2023/05/03 02:15:10;;;;;;;16.60;8.10;;;7.30;99.90;;;;;;4992847;28;20386;-75
2023/05/03 02:17:36;;;;;;;12.98;7.45;;;7.30;99.90;;;;;;4991817;28;20144;-74
2023/05/03 02:20:08;;;;;;;15.13;7.22;;;;;;;;;;4992268;28;20030;-74
2023/05/03 02:22:34;;;;;;;11.27;7.65;;;7.20;99.90;;;;;;4991904;28;20357;-75
2023/05/03 02:25:00;;;;;;;19.55;8.73;;;6.90;99.90;;;;;;4993638;28;20053;-74
2023/05/03 02:27:26;;;;;;;17.05;8.02;;;7.00;99.90;;;;;;4993559;28;20030;-75
2023/05/03 02:29:52;;;;;;;11.13;6.45;;;;;;;;;;4991919;28;20029;-74
2023/05/03 02:32:18;;;;;;;15.45;8.07;;;7.00;99.90;;;;;;4994320;28;20058;-74
2023/05/03 02:34:46;;;;;;;16.95;7.13;;;7.00;99.90;;;;;;4990799;28;20544;-75
2023/05/03 02:37:11;;;;;;;15.68;8.95;;;7.00;99.90;;;;;;4995089;28;20053;-75
2023/05/03 02:39:37;;;;;;;16.95;8.95;;;6.90;99.90;;;;;;4996635;28;20112;-75
2023/05/03 02:42:02;;;;;;;13.52;7.57;;;6.90;99.90;;;;;;4998677;28;20129;-75
2023/05/03 02:44:28;;;;;;;19.70;9.38;;;6.90;99.90;;;;;;5000816;28;20445;-74
2023/05/03 02:46:54;;;;;;;19.80;8.60;;;6.80;99.90;;;;;;4997476;28;20457;-75
2023/05/03 02:49:20;;;;;;;17.83;7.95;;;6.70;99.90;;;;;;4998268;28;20040;-74
2023/05/03 02:51:45;;;;;;;19.75;9.02;;;6.70;99.90;;;;;;4999303;28;20518;-74
2023/05/03 02:54:11;;;;;;;13.70;7.60;;;6.60;99.90;;;;;;4998034;28;20038;-75
2023/05/03 02:56:37;;;;;;;15.30;8.73;;;6.40;99.90;;;;;;4998547;28;20030;-74
2023/05/03 02:59:03;;;;;;;14.90;8.73;;;6.40;99.90;;;;;;4997721;28;20025;-75
2023/05/03 03:01:28;;;;;;;20.60;8.77;;;6.40;99.90;;;;;;4998342;28;20027;-75
2023/05/03 03:03:55;;;;;;;16.90;8.23;;;6.30;99.90;;;;;;4995471;28;20356;-74
2023/05/03 03:06:21;;;;;;;13.70;7.88;;;6.20;99.90;;;;;;4995867;28;20093;-75
2023/05/03 03:08:46;;;;;;;18.38;8.73;;;6.10;99.90;;;;;;4995048;28;20034;-74
2023/05/03 03:11:12;;;;;;;13.50;8.32;;;6.10;99.90;;;;;;4995541;28;20494;-75
2023/05/03 03:13:40;;;;;;;14.88;9.52;;;6.00;99.90;;;;;;4995331;28;20022;-75
2023/05/03 03:16:08;;;;;;;16.98;8.65;;;5.90;99.90;;;;;;4995183;28;20092;-75
2023/05/03 03:18:34;;;;;;;17.63;8.90;;;5.90;99.90;;;;;;4996385;28;20018;-75
2023/05/03 03:21:03;;;;;;;19.08;9.35;;;5.90;99.90;;;;;;4995569;28;20149;-74
2023/05/03 03:23:29;;;;;;;20.60;8.90;;;5.90;99.90;;;;;;4995387;28;20144;-74
2023/05/03 03:25:54;;;;;;;23.00;11.13;;;5.90;99.90;;;;;;4995634;28;20329;-74
2023/05/03 03:28:20;;;;;;;14.73;8.27;;;6.00;99.90;;;;;;4994909;28;20054;-75
2023/05/03 03:30:46;;;;;;;20.20;10.60;;;6.00;99.90;;;;;;4994638;28;20293;-75
2023/05/03 03:33:12;;;;;;;18.00;9.50;;;6.10;99.90;;;;;;4994886;28;20022;-75
2023/05/03 03:35:38;;;;;;;21.02;11.00;;;6.20;99.90;;;;;;4994650;28;20427;-74
2023/05/03 03:38:05;;;;;;;19.70;9.45;;;6.10;99.90;;;;;;4994828;28;20030;-75
2023/05/03 03:40:30;;;;;;;23.33;10.07;;;6.10;99.90;;;;;;4993006;28;20559;-74
2023/05/03 03:42:56;;;;;;;19.00;10.25;;;6.20;99.90;;;;;;4994474;28;20187;-75
2023/05/03 03:45:22;;;;;;;17.30;10.20;;;6.20;99.90;;;;;;4995070;28;20106;-75
2023/05/03 03:47:48;;;;;;;15.48;8.48;;;6.10;99.90;;;;;;4993958;28;20037;-74
2023/05/03 03:50:13;;;;;;;18.10;9.40;;;6.00;99.90;;;;;;4994335;28;20554;-75
2023/05/03 03:52:39;;;;;;;16.73;10.23;;;;;;;;;;4993730;28;20029;-75
2023/05/03 03:55:06;;;;;;;23.05;9.98;;;6.10;99.90;;;;;;4993854;28;20049;-75
2023/05/03 03:57:32;;;;;;;17.77;9.52;;;6.00;99.90;;;;;;4994960;28;20033;-74
2023/05/03 03:59:58;;;;;;;18.63;9.20;;;6.00;99.90;;;;;;4995164;28;20035;-74
2023/05/03 04:02:24;;;;;;;19.83;9.82;;;6.00;99.90;;;;;;4996344;28;20072;-75
2023/05/03 04:04:50;;;;;;;18.10;9.95;;;6.00;99.90;;;;;;4994361;28;20027;-74
2023/05/03 04:07:16;;;;;;;16.85;8.93;;;5.90;99.90;;;;;;4996634;28;20098;-75
2023/05/03 04:09:41;;;;;;;19.35;10.38;;;5.90;99.90;;;;;;4994489;28;20030;-74
2023/05/03 04:12:07;;;;;;;18.65;8.82;;;6.00;99.90;;;;;;4993812;28;20385;-74
2023/05/03 04:14:33;;;;;;;20.30;9.30;;;6.00;99.90;;;;;;4999566;28;20433;-75
2023/05/03 04:16:58;;;;;;;23.33;9.43;;;6.00;99.90;;;;;;5001054;28;20026;-75
2023/05/03 04:19:25;;;;;;;24.65;10.18;;;6.00;99.90;;;;;;4997394;28;20022;-75
2023/05/03 04:21:53;;;;;;;18.90;9.70;;;5.90;99.90;;;;;;4990089;28;20031;-74
2023/05/03 04:24:19;;;;;;;22.58;9.57;;;5.80;99.90;;;;;;4975970;28;20034;-74
2023/05/03 04:26:45;;;;;;;20.02;9.20;;;5.90;99.90;;;;;;4984545;28;20108;-74
2023/05/03 04:29:11;;;;;;;17.45;9.70;;;5.90;99.90;;;;;;4982064;28;20021;-73
2023/05/03 04:31:39;;;;;;;16.45;8.88;;;5.90;99.90;;;;;;4983365;28;20065;-75
2023/05/03 04:34:06;;;;;;;16.85;8.98;;;5.90;99.90;;;;;;4992797;28;20038;-74
2023/05/03 04:36:32;;;;;;;14.77;8.60;;;5.90;99.90;;;;;;4994623;28;20049;-74
2023/05/03 04:38:58;;;;;;;16.10;9.68;;;6.00;99.90;;;;;;4991919;28;20022;-74
2023/05/03 04:41:24;;;;;;;20.40;10.18;;;6.00;99.90;;;;;;4993569;28;20022;-74
2023/05/03 04:43:50;;;;;;;17.83;8.48;;;6.00;99.90;;;;;;4992089;28;20352;-75
2023/05/03 04:46:17;;;;;;;14.20;8.25;;;6.10;99.90;;;;;;4990741;28;20498;-74
2023/05/03 04:48:44;;;;;;;17.80;9.20;;;6.00;99.90;;;;;;4990701;28;20322;-74
2023/05/03 04:51:10;;;;;;;18.23;8.80;;;6.10;99.90;;;;;;4991031;28;20112;-74
2023/05/03 04:53:36;;;;;;;18.40;9.63;;;6.20;99.90;;;;;;4990047;28;20069;-75
2023/05/03 04:56:01;;;;;;;23.15;9.77;;;6.20;99.90;;;;;;4990334;28;20061;-74
2023/05/03 04:58:27;;;;;;;17.98;9.18;;;6.20;99.90;;;;;;4988490;28;20046;-74
2023/05/03 05:00:53;;;;;;;17.92;8.43;;;6.20;99.90;;;;;;4991402;28;20050;-75
2023/05/03 05:03:18;;;;;;;17.17;9.70;;;6.30;99.90;;;;;;4992221;28;20550;-74
2023/05/03 05:05:44;;;;;;;15.95;9.00;;;6.30;99.90;;;;;;4993037;28;20045;-74
2023/05/03 05:08:10;;;;;;;14.68;7.90;;;6.50;99.90;;;;;;4993689;28;20022;-74
2023/05/03 05:10:37;;;;;;;17.08;9.18;;;6.70;99.90;;;;;;4992541;28;20505;-74
2023/05/03 05:13:03;;;;;;;23.40;8.93;;;6.80;99.90;;;;;;4991149;28;20080;-74
2023/05/03 05:15:29;;;;;;;23.35;9.93;;;;;;;;;;4992157;28;20034;-75
2023/05/03 05:17:55;;;;;;;13.00;7.72;;;7.00;99.90;;;;;;4991185;28;20038;-74
2023/05/03 05:20:21;;;;;;;14.48;7.80;;;7.10;99.90;;;;;;4994434;28;20053;-74
2023/05/03 05:22:46;;;;;;;14.88;7.40;;;7.20;99.90;;;;;;4992562;28;20066;-74
2023/05/03 05:25:12;;;;;;;17.30;8.30;;;7.50;99.90;;;;;;4992968;28;20058;-75
2023/05/03 05:27:38;;;;;;;17.15;8.20;;;7.50;99.90;;;;;;4992925;28;20097;-74
2023/05/03 05:30:05;;;;;;;16.67;8.70;;;7.70;99.90;;;;;;4992582;28;20034;-75
2023/05/03 05:32:30;;;;;;;17.73;8.23;;;7.70;99.90;;;;;;4994434;28;20434;-74
2023/05/03 05:34:56;;;;;;;20.42;9.02;;;7.70;99.90;;;;;;4992222;28;20031;-74
2023/05/03 05:37:22;;;;;;;13.93;7.47;;;7.70;99.90;;;;;;4992100;28;20063;-75
2023/05/03 05:39:48;;;;;;;15.25;8.25;;;;;;;;;;4991806;28;20378;-75
2023/05/03 05:42:14;;;;;;;14.05;8.02;;;7.70;99.90;;;;;;4993950;28;20101;-75
2023/05/03 05:44:40;;;;;;;12.85;6.95;;;9.30;99.90;;;;;;4992863;28;20022;-75
2023/05/03 05:47:06;;;;;;;19.27;8.75;;;8.50;99.90;;;;;;4992331;28;20053;-74
2023/05/03 05:49:32;;;;;;;16.70;7.45;;;8.40;99.90;;;;;;4992220;28;20034;-74
2023/05/03 05:51:57;;;;;;;16.25;8.00;;;8.40;99.90;;;;;;4995502;28;20149;-75
2023/05/03 05:54:23;;;;;;;10.30;7.35;;;8.50;99.90;;;;;;4991699;28;20501;-74
2023/05/03 05:56:49;;;;;;;14.15;7.47;;;8.90;99.90;;;;;;4989996;28;20034;-74
2023/05/03 05:59:15;;;;;;;13.13;7.82;;;9.00;99.90;;;;;;4995088;28;20467;-74
2023/05/03 06:01:44;;;;;;;13.07;7.75;;;9.30;99.90;;;;;;4993139;28;20041;-74
2023/05/03 06:04:13;;;;;;;15.25;8.73;;;9.40;99.90;;;;;;4990011;28;20027;-74
2023/05/03 06:06:39;;;;;;;13.68;8.15;;;9.40;99.90;;;;;;4993322;28;20048;-74
2023/05/03 06:09:05;;;;;;;17.85;8.65;;;9.50;99.90;;;;;;4992295;28;20081;-74
2023/05/03 06:11:32;;;;;;;14.82;7.68;;;9.40;99.90;;;;;;4992359;28;20022;-74
2023/05/03 06:13:58;;;;;;;13.05;8.02;;;9.60;99.90;;;;;;4995830;28;20031;-74
2023/05/03 06:16:23;;;;;;;14.95;8.15;;;9.80;99.90;;;;;;4999218;28;20076;-74
2023/05/03 06:18:49;;;;;;;16.52;8.18;;;9.90;99.90;;;;;;4994404;28;20050;-74
2023/05/03 06:21:15;;;;;;;18.70;8.93;;;9.90;99.90;;;;;;4994117;28;20023;-75
2023/05/03 06:23:41;;;;;;;16.77;9.30;;;9.90;99.90;;;;;;4990999;28;20019;-74
2023/05/03 06:26:07;;;;;;;13.18;7.40;;;10.10;99.90;;;;;;4993580;28;20506;-74
2023/05/03 06:28:34;;;;;;;15.45;8.68;;;10.20;99.90;;;;;;4990617;28;20023;-73
2023/05/03 06:31:01;;;;;;;13.77;7.70;;;10.00;99.90;;;;;;4991170;28;20023;-74
2023/05/03 06:33:29;;;;;;;22.02;9.75;;;10.00;99.90;;;;;;4992036;28;20058;-74
2023/05/03 06:35:55;;;;;;;15.23;9.20;;;9.90;99.90;;;;;;4995406;28;20041;-74
2023/05/03 06:38:21;;;;;;;15.95;8.40;;;10.00;99.90;;;;;;4992293;28;20106;-74
2023/05/03 06:40:47;;;;;;;18.27;8.75;;;10.50;99.90;;;;;;4992383;28;20442;-75
2023/05/03 06:43:13;;;;;;;14.80;8.18;;;10.60;99.90;;;;;;4992500;28;20053;-74
2023/05/03 06:45:40;;;;;;;12.40;8.15;;;11.00;99.90;;;;;;4994470;28;20022;-75
2023/05/03 06:48:07;;;;;;;15.27;8.13;;;;;;;;;;4994802;28;20052;-73
2023/05/03 06:50:33;;;;;;;14.52;7.60;;;11.60;99.90;;;;;;4993493;28;20023;-75
2023/05/03 06:52:58;;;;;;;13.35;8.50;;;11.60;99.90;;;;;;4992219;28;20568;-75
2023/05/03 06:55:24;;;;;;;13.23;7.90;;;12.50;99.90;;;;;;4992673;28;20042;-75
2023/05/03 06:57:51;;;;;;;15.57;8.75;;;12.80;99.90;;;;;;4997949;28;20018;-75
2023/05/03 07:00:17;;;;;;;20.08;8.02;;;13.40;99.90;;;;;;4999657;28;20097;-75
2023/05/03 07:02:43;;;;;;;16.65;8.07;;;14.10;99.90;;;;;;5000615;28;20027;-75
2023/05/03 07:05:09;;;;;;;14.80;8.13;;;14.40;99.90;;;;;;4996909;28;20045;-74
2023/05/03 07:07:38;;;;;;;10.48;7.05;;;14.60;99.90;;;;;;4997176;28;20035;-74
2023/05/03 07:10:05;;;;;;;12.33;7.87;;;14.30;99.90;;;;;;4999280;28;20077;-75
2023/05/03 07:12:30;;;;;;;13.82;7.38;;;15.20;99.90;;;;;;4999043;28;20077;-74
2023/05/03 07:14:57;;;;;;;12.48;7.32;;;15.30;97.20;;;;;;5000883;28;20034;-74
2023/05/03 07:17:23;;;;;;;12.40;7.90;;;15.20;97.10;;;;;;4998443;28;20120;-75
2023/05/03 07:19:49;;;;;;;11.73;6.65;;;15.00;97.40;;;;;;4998506;28;20026;-75
2023/05/03 07:22:16;;;;;;;11.70;7.30;;;15.10;97.00;;;;;;5001927;28;20022;-75
2023/05/03 07:24:41;;;;;;;16.95;7.60;;;15.50;97.10;;;;;;5003051;28;20032;-78
2023/05/03 07:27:07;;;;;;;13.40;7.30;;;15.60;96.20;;;;;;5005013;28;20097;-75
2023/05/03 07:29:33;;;;;;;11.65;7.63;;;15.40;95.00;;;;;;5006431;28;20054;-74
2023/05/03 07:31:59;;;;;;;14.10;7.78;;;15.90;94.60;;;;;;5004050;28;20029;-75
2023/05/03 07:34:25;;;;;;;17.65;7.65;;;16.30;93.50;;;;;;5004617;28;20030;-74
2023/05/03 07:36:51;;;;;;;15.63;6.72;;;16.10;91.90;;;;;;5004945;28;20100;-74
2023/05/03 07:39:17;;;;;;;13.30;8.18;;;16.00;92.90;;;;;;5002559;28;20026;-75
2023/05/03 07:41:43;;;;;;;10.75;7.65;;;15.60;93.30;;;;;;5003235;28;20027;-74
2023/05/03 07:44:09;;;;;;;15.82;7.50;;;15.50;94.10;;;;;;5002979;28;20363;-75
2023/05/03 07:46:35;;;;;;;11.80;7.22;;;15.00;95.60;;;;;;5000432;28;20061;-75
2023/05/03 07:49:03;;;;;;;13.07;8.02;;;14.80;96.70;;;;;;4998745;28;20138;-74
2023/05/03 07:51:34;;;;;;;11.83;7.70;;;14.70;97.00;;;;;;4998821;28;20031;-74
2023/05/03 07:54:00;;;;;;;15.80;7.82;;;15.60;96.90;;;;;;4997546;28;20022;-74
2023/05/03 07:56:27;;;;;;;14.88;8.13;;;15.80;95.10;;;;;;4996669;28;20086;-74
2023/05/03 07:58:52;;;;;;;10.90;7.80;;;15.90;94.20;;;;;;5000080;28;20022;-75
2023/05/03 08:01:20;;;;;;;14.02;7.00;;;15.10;94.00;;;;;;4996341;28;20141;-75
2023/05/03 08:03:49;;;;;;;21.95;8.50;;;14.90;94.80;;;;;;4994533;28;20034;-75
2023/05/03 08:06:15;;;;;;;14.75;7.50;;;17.40;97.20;;;;;;4997599;28;20454;-74
2023/05/03 08:08:41;;;;;;;16.00;7.53;;;15.20;96.10;;;;;;4995347;28;20037;-74
2023/05/03 08:11:07;;;;;;;13.57;7.18;;;15.20;96.90;;;;;;4994340;28;20029;-75
2023/05/03 08:13:33;;;;;;;13.32;8.05;;;15.00;97.80;;;;;;4995666;28;20449;-75
2023/05/03 08:15:58;;;;;;;17.08;8.88;;;15.20;99.20;;;;;;4997019;28;20375;-75
2023/05/03 08:18:24;;;;;;;14.20;8.43;;;15.70;99.50;;;;;;4995837;28;20027;-75
2023/05/03 08:20:50;;;;;;;12.48;7.97;;;15.40;96.80;;;;;;4996054;28;20061;-75
2023/05/03 08:23:16;;;;;;;21.25;8.80;;;15.70;97.10;;;;;;4995555;28;20034;-76
2023/05/03 08:25:43;;;;;;;15.60;8.70;;;15.60;98.00;;;;;;4993965;28;20053;-74
2023/05/03 08:28:09;;;;;;;17.17;8.38;;;15.60;98.20;;;;;;4996812;28;20033;-75
2023/05/03 08:30:35;;;;;;;13.68;7.85;;;15.50;98.20;;;;;;4996239;28;20030;-75
2023/05/03 08:33:01;;;;;;;14.13;8.15;;;15.80;99.30;;;;;;4996251;28;20032;-74
2023/05/03 08:35:27;;;;;;;16.70;8.20;;;16.40;97.20;;;;;;4998646;28;20030;-74
2023/05/03 08:37:52;;;;;;;13.60;8.85;;;16.10;96.10;;;;;;4996831;28;20141;-75
2023/05/03 08:40:21;;;;;;;13.25;7.75;;;15.40;98.20;;;;;;4994645;28;20537;-74
2023/05/03 08:42:47;;;;;;;16.73;9.05;;;15.10;98.70;;;;;;4993223;28;20076;-74
2023/05/03 08:45:14;;;;;;;17.38;9.20;;;15.30;99.20;;;;;;4993729;28;20034;-75
2023/05/03 08:47:43;;;;;;;14.18;8.57;;;15.40;99.90;;;;;;4991058;28;20475;-74
2023/05/03 08:50:13;;;;;;;12.67;8.43;;;15.20;99.90;;;;;;4994043;28;20041;-74
2023/05/03 08:52:41;;;;;;;16.90;7.35;;;15.20;99.90;;;;;;4993730;28;20023;-74
2023/05/03 08:55:08;;;;;;;15.35;7.90;;;14.60;99.90;;;;;;4997277;28;20069;-75
2023/05/03 08:57:34;;;;;;;17.58;9.32;;;14.40;99.90;;;;;;4996988;28;20445;-74
2023/05/03 09:00:00;;;;;;;13.50;9.00;;;14.50;99.90;;;;;;4994491;28;20062;-74
2023/05/03 09:02:29;;;;;;;22.00;9.75;;;14.70;99.90;;;;;;4992215;28;20061;-74
2023/05/03 09:04:55;;;;;;;18.97;9.20;;;14.30;99.90;;;;;;4991735;28;20093;-74
2023/05/03 09:07:21;;;;;;;16.02;8.70;;;14.20;99.90;;;;;;4994049;28;20030;-74
2023/05/03 09:09:47;;;;;;;15.70;8.70;;;14.10;99.90;;;;;;4992461;28;20026;-74
2023/05/03 09:12:35;;;;;;;16.83;8.88;;;14.20;99.90;;;;;;4993360;28;20602;-75
2023/05/03 09:15:02;;;;;;;19.83;8.75;;;14.10;99.90;;;;;;4992644;28;20078;-74
2023/05/03 09:17:28;;;;;;;16.35;8.52;;;14.20;99.90;;;;;;4992280;28;20503;-74
2023/05/03 09:19:56;;;;;;;19.67;8.77;;;14.30;99.90;;;;;;4994590;28;20054;-74
2023/05/03 09:22:24;;;;;;;15.35;9.18;;;14.70;99.90;;;;;;4992183;28;20109;-74
2023/05/03 09:24:55;;;;;;;18.52;9.82;;;14.40;99.90;;;;;;4992541;28;20089;-74
2023/05/03 09:27:22;;;;;;;18.08;8.88;;;14.30;99.90;;;;;;4992855;28;20037;-74
2023/05/03 09:29:48;;;;;;;15.85;8.77;;;14.50;99.90;;;;;;4991501;28;20049;-74
2023/05/03 09:32:14;;;;;;;16.90;9.05;;;14.60;99.90;;;;;;4994478;28;20022;-74
2023/05/03 09:34:40;;;;;;;19.95;9.50;;;14.70;99.90;;;;;;4991070;28;20113;-75
2023/05/03 09:37:05;;;;;;;15.38;8.70;;;14.90;99.90;;;;;;4995883;28;20026;-74
2023/05/03 09:39:31;;;;;;;14.43;8.55;;;14.70;99.90;;;;;;4996660;28;20027;-74
2023/05/03 09:41:57;;;;;;;17.65;9.02;;;15.00;99.90;;;;;;4995413;28;20439;-74
2023/05/03 09:44:43;;;;;;;15.48;8.73;;;15.20;99.90;;;;;;4997180;28;20162;-75
2023/05/03 09:47:09;;;;;;;21.73;10.02;;;15.10;99.90;;;;;;4996479;28;20046;-74
2023/05/03 09:49:36;;;;;;;16.98;8.77;;;15.20;99.90;;;;;;4996010;28;20053;-75
2023/05/03 09:52:03;;;;;;;15.30;8.75;;;15.30;99.90;;;;;;4998340;28;20023;-74
2023/05/03 09:54:32;;;;;;;15.48;8.48;;;15.30;99.90;;;;;;4998215;28;20548;-75
2023/05/03 09:57:01;;;;;;;15.32;8.02;;;15.70;99.90;;;;;;4998808;28;20030;-74
2023/05/03 09:59:27;;;;;;;14.07;8.80;;;15.70;99.90;;;;;;4999300;28;20030;-75
2023/05/03 10:01:58;;;;;;;14.80;8.70;;;15.90;99.90;;;;;;5000249;28;20029;-73
2023/05/03 10:04:26;;;;;;;15.30;7.80;;;16.10;99.90;;;;;;4998844;28;20085;-74
2023/05/03 10:06:58;;;;;;;17.75;9.50;;;16.30;99.90;;;;;;4999122;28;20026;-74
2023/05/03 10:09:27;;;;;;;14.90;8.43;;;16.40;99.90;;;;;;5000821;28;20037;-74
2023/05/03 10:11:53;;;;;;;12.98;7.90;;;16.40;99.90;;;;;;5001128;28;20214;-74
2023/05/03 10:14:23;;;;;;;12.25;7.10;;;16.60;99.30;;;;;;5000471;28;20122;-74
2023/05/03 10:16:52;;;;;;;13.02;7.95;;;17.00;97.10;;;;;;4998624;28;20024;-74
2023/05/03 10:19:40;;;;;;;13.60;7.30;;;17.20;94.80;;;;;;4996695;28;20105;-74
2023/05/03 10:22:08;;;;;;;13.40;7.80;;;17.50;93.90;;;;;;4993765;28;20477;-74
2023/05/03 10:24:35;;;;;;;20.05;7.78;;;17.00;94.00;;;;;;4999277;28;20034;-74
2023/05/03 10:27:06;;;;;;;17.88;8.30;;;16.70;95.00;;;;;;5001089;28;20406;-75
2023/05/03 10:29:34;;;;;;;16.27;8.57;;;16.70;96.00;;;;;;4989522;28;20018;-74
2023/05/03 10:32:04;;;;;;;15.35;7.43;;;16.90;95.70;;;;;;4991242;28;20034;-74
2023/05/03 10:34:34;;;;;;;17.30;7.18;;;16.60;96.10;;;;;;4990920;28;20117;-74
2023/05/03 10:37:02;;;;;;;13.98;7.35;;;16.70;93.40;;;;;;4991114;28;20065;-74
2023/05/03 10:39:29;;;;;;;11.77;7.22;;;16.80;95.70;;;;;;4991608;28;20030;-74
2023/05/03 10:42:03;;;;;;;13.30;7.63;;;16.70;95.80;;;;;;4998561;28;20077;-74
2023/05/03 10:44:38;;;;;;;19.55;7.40;;;17.20;95.00;;;;;;4999308;28;20041;-74
2023/05/03 10:47:22;;;;;;;14.35;8.25;;;17.20;93.60;;;;;;4996143;28;20023;-74
2023/05/03 10:50:10;;;;;;;15.60;7.85;;;17.60;92.80;;;;;;4996858;28;20030;-75
2023/05/03 10:52:41;;;;;;;12.55;7.55;;;17.00;95.30;;;;;;4997571;28;20634;-75
2023/05/03 10:55:20;;;;;;;12.93;7.35;;;17.10;93.80;;;;;;4993880;28;20042;-75
2023/05/03 10:57:47;;;;;;;12.13;7.07;;;17.60;92.40;;;;;;4995395;28;20237;-74
2023/05/03 11:00:28;;;;;;;9.80;6.55;;;18.50;90.60;;;;;;4998964;28;20030;-74
2023/05/03 11:03:30;;;;;;;16.52;7.47;;;18.80;90.20;;;;;;4999886;28;20411;-74
2023/05/03 11:05:56;;;;;;;10.60;6.80;;;18.80;90.50;;;;;;4999430;28;20030;-74
2023/05/03 11:08:24;;;;;;;12.05;7.43;;;19.10;86.20;;;;;;4998104;28;20018;-74
2023/05/03 11:10:58;;;;;;;14.40;7.80;;;19.00;82.80;;;;;;4998008;28;20037;-75
2023/05/03 11:13:24;;;;;;;18.48;7.53;;;18.60;82.90;;;;;;4997755;28;20023;-74
2023/05/03 11:15:51;;;;;;;9.20;6.85;;;18.40;84.20;;;;;;5000368;28;20100;-74
2023/05/03 11:18:17;;;;;;;9.60;6.75;;;18.70;83.80;;;;;;5001113;28;20054;-74
2023/05/03 11:20:43;;;;;;;14.18;7.22;;;19.20;87.10;;;;;;4992786;28;20052;-74
2023/05/03 11:23:10;;;;;;;15.93;7.28;;;20.10;79.30;;;;;;4993103;28;20057;-75
2023/05/03 11:25:37;;;;;;;13.40;6.18;;;20.20;78.20;;;;;;4993727;28;20050;-74
2023/05/03 11:28:03;;;;;;;13.77;7.85;;;19.70;77.60;;;;;;4994859;28;20019;-74
2023/05/03 11:30:31;;;;;;;11.30;7.50;;;19.90;80.30;;;;;;4999913;28;20069;-74
2023/05/03 11:32:58;;;;;;;10.13;6.90;;;19.70;79.70;;;;;;5000892;28;20550;-74
2023/05/03 11:35:25;;;;;;;11.60;7.40;;;19.20;79.40;;;;;;4998192;28;20065;-75
2023/05/03 11:37:53;;;;;;;10.52;6.57;;;;;;;;;;4997468;28;20026;-75
2023/05/03 11:40:22;;;;;;;9.50;6.80;;;19.70;76.50;;;;;;4998642;28;20105;-75
2023/05/03 11:42:54;;;;;;;8.77;6.15;;;19.60;75.80;;;;;;4999943;28;20061;-74
2023/05/03 11:45:23;;;;;;;14.18;7.03;;;19.90;78.20;;;;;;5000849;28;20026;-75
2023/05/03 11:47:50;;;;;;;10.15;5.97;;;20.20;74.40;;;;;;4998187;28;20019;-74
2023/05/03 11:50:16;;;;;;;14.85;6.53;;;20.90;73.10;;;;;;4987724;28;20386;-75
2023/05/03 11:52:42;;;;;;;10.20;5.95;;;20.90;74.00;;;;;;4993054;28;20120;-75
2023/05/03 11:55:09;;;;;;;9.32;6.47;;;21.40;73.60;;;;;;4992599;28;20037;-74
2023/05/03 11:57:36;;;;;;;11.48;7.00;;;21.40;71.10;;;;;;4994651;28;20277;-75
2023/05/03 12:00:13;;;;;;;8.93;5.55;;;21.50;69.30;;;;;;4992743;28;20026;-75
2023/05/03 12:02:40;;;;;;;6.03;4.32;;;22.00;68.80;;;;;;4993937;28;20037;-74
2023/05/03 12:05:07;;;;;;;7.97;5.68;;;21.90;65.60;;;;;;4995566;28;20105;-74
2023/05/03 12:07:33;;;;;;;9.80;5.40;;;22.20;67.40;;;;;;4990856;28;20496;-75
2023/05/03 12:10:00;;;;;;;7.00;5.22;;;22.50;65.40;;;;;;4994388;28;20027;-75
2023/05/03 12:12:26;;;;;;;13.60;6.30;;;22.40;67.10;;;;;;4991730;28;20110;-75
2023/05/03 12:14:59;;;;;;;10.57;6.53;;;22.60;68.50;;;;;;4992363;28;20160;-74
2023/05/03 12:17:38;;;;;;;10.10;5.45;;;22.40;67.10;;;;;;4996486;28;20030;-74
2023/05/03 12:20:20;;;;;;;12.68;6.35;;;22.30;67.00;;;;;;4992306;28;20026;-74
2023/05/03 12:22:54;;;;;;;7.05;5.32;;;22.80;66.70;;;;;;4988425;28;20038;-74
2023/05/03 12:25:21;;;;;;;13.25;5.45;;;23.00;65.30;;;;;;4994514;28;20043;-74
2023/05/03 12:27:47;;;;;;;8.43;5.57;;;23.10;64.40;;;;;;4989402;28;20036;-74
2023/05/03 12:30:13;;;;;;;9.23;5.13;;;22.80;64.20;;;;;;4992807;28;20050;-74
2023/05/03 12:32:39;;;;;;;7.28;4.57;;;22.80;64.30;;;;;;4990727;28;20053;-74
2023/05/03 12:35:05;;;;;;;7.95;5.05;;;23.20;62.80;;;;;;4989276;28;20230;-74
2023/05/03 12:37:31;;;;;;;6.00;4.90;;;22.90;62.80;;;;;;4988209;28;20490;-75
2023/05/03 12:39:57;;;;;;;5.47;4.75;;;22.80;63.50;;;;;;4991181;28;20027;-74
2023/05/03 12:42:22;;;;;;;6.30;4.72;;;22.80;61.90;;;;;;4990730;28;20398;-74
2023/05/03 12:44:48;;;;;;;8.05;5.03;;;22.80;62.60;;;;;;4988715;28;20026;-74
2023/05/03 12:47:14;;;;;;;7.70;5.25;;;23.10;64.30;;;;;;4992665;28;20015;-74